Terminal Aerodrome Forecast
Issued by NWS

Home | Current Version | Previous Version | Text Only | Print | Product List | Glossary On
Versions: 1 2 3 4 5 6 7 8 9 10 11 12 13 14 15 16
000
FTUS45 KMSO 271720
TAFSMN
TAF
KSMN 271720Z 2718/2818 21006G16KT P6SM BKN080
     FM280000 22007KT 6SM -SN BR BKN040 OVC050
     FM280300 VRB03KT 4SM -SN BR SCT010 OVC025
      AMD LTD TO CLD VIS AND WIND=

USA.gov is the U.S. government's official web portal to all federal, state and local government web resources and services.